createdAt,value
2017-03-12T00:00:08.108Z,1021.21
2017-03-12T00:00:48.989Z,1021.19
2017-03-12T00:01:29.873Z,1021.19
2017-03-12T00:02:10.760Z,1021.19
2017-03-12T00:02:51.649Z,1021.17
2017-03-12T00:03:32.530Z,1021.18
2017-03-12T00:04:13.417Z,1021.15
2017-03-12T00:04:54.299Z,1021.17
2017-03-12T00:05:35.181Z,1021.17
2017-03-12T00:06:16.063Z,1021.14
2017-03-12T00:06:56.944Z,1021.13
2017-03-12T00:07:37.828Z,1021.17
2017-03-12T00:08:18.711Z,1021.16
2017-03-12T00:08:59.588Z,1021.19
2017-03-12T00:09:40.497Z,1021.17
2017-03-12T00:10:21.379Z,1021.19
2017-03-12T00:11:02.264Z,1021.15
2017-03-12T00:11:43.140Z,1021.15
2017-03-12T00:12:24.027Z,1021.18
2017-03-12T00:13:04.907Z,1021.14
2017-03-12T00:13:45.790Z,1021.18
2017-03-12T00:14:26.671Z,1021.14
2017-03-12T00:15:07.568Z,1021.17
2017-03-12T00:15:48.442Z,1021.15
2017-03-12T00:16:29.322Z,1021.16
2017-03-12T00:17:10.209Z,1021.15
2017-03-12T00:17:51.100Z,1021.14
2017-03-12T00:18:31.995Z,1021.12
2017-03-12T00:19:12.861Z,1021.12
2017-03-12T00:19:53.734Z,1021.13
2017-03-12T00:20:34.622Z,1021.15
2017-03-12T00:21:15.511Z,1021.14
2017-03-12T00:21:56.388Z,1021.12
2017-03-12T00:22:37.268Z,1021.12
2017-03-12T00:23:18.157Z,1021.13
2017-03-12T00:23:59.045Z,1021.06
2017-03-12T00:24:39.924Z,1021.09
2017-03-12T00:25:20.796Z,1021.09
2017-03-12T00:26:01.683Z,1021.08
2017-03-12T00:26:42.572Z,1021.06
2017-03-12T00:27:23.451Z,1021.05
2017-03-12T00:28:04.332Z,1021.05
2017-03-12T00:28:45.224Z,1021.06
2017-03-12T00:29:26.107Z,1021.05
2017-03-12T00:30:06.978Z,1021.08
2017-03-12T00:30:47.859Z,1021.08
2017-03-12T00:31:28.744Z,1021.09
2017-03-12T00:32:09.616Z,1021.07
2017-03-12T00:32:50.499Z,1021.09
2017-03-12T00:33:31.374Z,1021.07
2017-03-12T00:34:12.258Z,1021.05
2017-03-12T00:34:53.140Z,1021.07
2017-03-12T00:35:34.023Z,1021.07
2017-03-12T00:36:14.915Z,1021.05
2017-03-12T00:36:55.773Z,1021.03
2017-03-12T00:37:36.657Z,1021.07
2017-03-12T00:38:17.555Z,1021.08
2017-03-12T00:38:58.436Z,1021.05
2017-03-12T00:39:39.313Z,1021.07
2017-03-12T00:40:20.196Z,1021.08
2017-03-12T00:41:01.083Z,1021.06
2017-03-12T00:41:41.962Z,1021.06
2017-03-12T00:42:22.844Z,1021.06
2017-03-12T00:43:03.731Z,1021.05
2017-03-12T00:43:44.622Z,1021.03
2017-03-12T00:44:25.506Z,1021.02
2017-03-12T00:45:06.390Z,1021.05
2017-03-12T00:45:47.273Z,1021.04
2017-03-12T00:46:28.158Z,1021.03
2017-03-12T00:47:09.036Z,1021.03
2017-03-12T00:47:49.924Z,1020.99
2017-03-12T00:48:30.812Z,1020.98
2017-03-12T00:49:11.693Z,1020.97
2017-03-12T00:49:52.587Z,1021.01
2017-03-12T00:50:33.472Z,1020.97
2017-03-12T00:51:14.356Z,1020.97
2017-03-12T00:51:55.239Z,1020.96
2017-03-12T00:52:36.115Z,1020.97
2017-03-12T00:53:16.991Z,1021.02
2017-03-12T00:53:57.877Z,1020.97
2017-03-12T00:54:38.762Z,1020.99
2017-03-12T00:55:19.642Z,1020.94
2017-03-12T00:56:00.521Z,1020.95
2017-03-12T00:56:41.412Z,1020.98
2017-03-12T00:57:22.301Z,1020.94
2017-03-12T00:58:03.174Z,1020.96
2017-03-12T00:58:44.043Z,1020.99
2017-03-12T00:59:24.927Z,1020.96
2017-03-12T01:00:05.814Z,1020.96
2017-03-12T01:00:46.694Z,1020.98
2017-03-12T01:01:27.580Z,1020.94
2017-03-12T01:02:08.464Z,1020.95
2017-03-12T01:02:49.350Z,1020.93
2017-03-12T01:03:30.235Z,1020.92
2017-03-12T01:04:11.118Z,1020.91
2017-03-12T01:04:52.018Z,1020.89
2017-03-12T01:05:32.900Z,1020.94
2017-03-12T01:06:13.778Z,1020.92
2017-03-12T01:06:54.655Z,1020.9
2017-03-12T01:07:35.544Z,1020.91
2017-03-12T01:08:16.428Z,1020.88
2017-03-12T01:08:57.307Z,1020.85
2017-03-12T01:09:38.189Z,1020.86
2017-03-12T01:10:19.065Z,1020.86
2017-03-12T01:10:59.950Z,1020.89
2017-03-12T01:11:40.836Z,1020.88
2017-03-12T01:12:21.717Z,1020.87
2017-03-12T01:13:02.616Z,1020.85
2017-03-12T01:13:43.499Z,1020.85
2017-03-12T01:14:24.380Z,1020.87
2017-03-12T01:15:05.266Z,1020.85
2017-03-12T01:15:46.146Z,1020.89
2017-03-12T01:16:27.036Z,1020.85
2017-03-12T01:17:07.905Z,1020.84
2017-03-12T01:17:48.788Z,1020.87
2017-03-12T01:18:29.679Z,1020.84
2017-03-12T01:19:10.569Z,1020.85
2017-03-12T01:19:51.449Z,1020.84
2017-03-12T01:20:32.325Z,1020.86
2017-03-12T01:21:13.212Z,1020.83
2017-03-12T01:21:54.097Z,1020.83
2017-03-12T01:22:34.988Z,1020.82
2017-03-12T01:23:15.875Z,1020.84
2017-03-12T01:23:56.761Z,1020.82
2017-03-12T01:24:37.647Z,1020.79
2017-03-12T01:25:18.531Z,1020.77
2017-03-12T01:25:59.417Z,1020.76
2017-03-12T01:26:40.300Z,1020.82
2017-03-12T01:27:21.180Z,1020.82
2017-03-12T01:28:02.078Z,1020.81
2017-03-12T01:28:42.947Z,1020.82
2017-03-12T01:29:23.848Z,1020.81
2017-03-12T01:30:04.734Z,1020.78
2017-03-12T01:30:45.614Z,1020.78
2017-03-12T01:31:26.526Z,1020.78
2017-03-12T01:32:07.381Z,1020.78
2017-03-12T01:32:48.275Z,1020.75
2017-03-12T01:33:29.163Z,1020.78
2017-03-12T01:34:10.049Z,1020.74
2017-03-12T01:34:50.923Z,1020.76
2017-03-12T01:35:31.802Z,1020.75
2017-03-12T01:36:12.688Z,1020.78
2017-03-12T01:36:53.571Z,1020.76
2017-03-12T01:37:34.447Z,1020.75
2017-03-12T01:38:15.339Z,1020.76
2017-03-12T01:38:56.225Z,1020.81
2017-03-12T01:39:37.103Z,1020.8
2017-03-12T01:40:17.986Z,1020.78
2017-03-12T01:40:58.873Z,1020.78
2017-03-12T01:41:39.763Z,1020.81
2017-03-12T01:42:20.649Z,1020.81
2017-03-12T01:43:01.525Z,1020.78
2017-03-12T01:43:42.403Z,1020.8
2017-03-12T01:44:23.278Z,1020.79
2017-03-12T01:45:04.162Z,1020.8
2017-03-12T01:45:45.039Z,1020.78
2017-03-12T01:46:25.912Z,1020.77
2017-03-12T01:47:06.782Z,1020.76
2017-03-12T01:47:47.670Z,1020.74
2017-03-12T01:48:28.574Z,1020.72
2017-03-12T01:49:09.446Z,1020.72
2017-03-12T01:49:50.327Z,1020.73
2017-03-12T01:50:31.216Z,1020.7
2017-03-12T01:51:12.095Z,1020.7
2017-03-12T01:51:52.977Z,1020.67
2017-03-12T01:52:33.865Z,1020.64
2017-03-12T01:53:14.754Z,1020.65
2017-03-12T01:53:55.631Z,1020.66
2017-03-12T01:54:36.514Z,1020.64
2017-03-12T01:55:17.392Z,1020.69
2017-03-12T01:55:58.275Z,1020.69
2017-03-12T01:56:39.164Z,1020.65
2017-03-12T01:57:20.043Z,1020.69
2017-03-12T01:58:00.925Z,1020.64
2017-03-12T01:58:41.796Z,1020.63
2017-03-12T01:59:22.680Z,1020.64
2017-03-12T02:00:03.561Z,1020.61
2017-03-12T02:00:44.439Z,1020.59
2017-03-12T02:01:25.321Z,1020.58
2017-03-12T02:02:06.208Z,1020.61
2017-03-12T02:02:47.090Z,1020.59
2017-03-12T02:03:27.972Z,1020.61
2017-03-12T02:04:08.852Z,1020.58
2017-03-12T02:04:49.740Z,1020.58
2017-03-12T02:05:30.619Z,1020.6
2017-03-12T02:06:11.510Z,1020.56
2017-03-12T02:06:52.384Z,1020.55
2017-03-12T02:07:33.271Z,1020.57
2017-03-12T02:08:14.155Z,1020.62
2017-03-12T02:08:55.034Z,1020.57
2017-03-12T02:09:35.922Z,1020.6
2017-03-12T02:11:54.806Z,1020.64
2017-03-12T02:12:35.693Z,1020.61
2017-03-12T02:13:16.566Z,1020.61
2017-03-12T02:13:57.448Z,1020.63
2017-03-12T02:14:38.334Z,1020.62
2017-03-12T02:15:19.213Z,1020.59
2017-03-12T02:16:00.089Z,1020.65
2017-03-12T02:16:40.970Z,1020.6
2017-03-12T02:17:21.853Z,1020.58
2017-03-12T02:18:02.733Z,1020.56
2017-03-12T02:18:43.612Z,1020.58
2017-03-12T02:19:24.489Z,1020.57
2017-03-12T02:20:05.370Z,1020.59
2017-03-12T02:20:46.253Z,1020.59
2017-03-12T02:21:27.136Z,1020.6
2017-03-12T02:22:08.013Z,1020.61
2017-03-12T02:22:48.890Z,1020.56
2017-03-12T02:23:29.771Z,1020.58
2017-03-12T02:24:10.653Z,1020.57
2017-03-12T02:24:51.531Z,1020.57
2017-03-12T02:25:32.415Z,1020.54
2017-03-12T02:26:13.298Z,1020.55
2017-03-12T02:26:54.185Z,1020.56
2017-03-12T02:27:35.066Z,1020.6
2017-03-12T02:28:15.945Z,1020.55
2017-03-12T02:28:56.827Z,1020.55
2017-03-12T02:29:37.714Z,1020.51
2017-03-12T02:30:18.589Z,1020.51
2017-03-12T02:30:59.475Z,1020.51
2017-03-12T02:31:40.346Z,1020.47
2017-03-12T02:32:21.225Z,1020.53
2017-03-12T02:33:02.115Z,1020.48
2017-03-12T02:33:42.991Z,1020.5
2017-03-12T02:34:23.871Z,1020.48
2017-03-12T02:35:04.756Z,1020.5
2017-03-12T02:35:45.647Z,1020.46
2017-03-12T02:36:26.533Z,1020.48
2017-03-12T02:37:07.412Z,1020.47
2017-03-12T02:37:48.288Z,1020.45
2017-03-12T02:38:29.177Z,1020.43
2017-03-12T02:39:10.058Z,1020.41
2017-03-12T02:39:50.937Z,1020.41
2017-03-12T02:40:31.820Z,1020.44
2017-03-12T02:41:12.710Z,1020.39
2017-03-12T02:41:53.589Z,1020.43
2017-03-12T02:42:34.475Z,1020.44
2017-03-12T02:43:15.358Z,1020.43
2017-03-12T02:43:56.242Z,1020.45
2017-03-12T02:44:37.122Z,1020.4
2017-03-12T02:45:18.005Z,1020.42
2017-03-12T02:45:58.891Z,1020.42
2017-03-12T02:46:39.772Z,1020.4
2017-03-12T02:47:20.658Z,1020.37
2017-03-12T02:48:01.532Z,1020.44
2017-03-12T02:48:42.410Z,1020.44
2017-03-12T02:49:23.310Z,1020.43
2017-03-12T02:50:04.188Z,1020.38
2017-03-12T02:50:45.063Z,1020.39
2017-03-12T02:51:25.953Z,1020.42
2017-03-12T02:52:06.813Z,1020.37
2017-03-12T02:52:47.697Z,1020.42
2017-03-12T02:53:28.577Z,1020.38
2017-03-12T02:54:09.460Z,1020.41
2017-03-12T02:54:50.343Z,1020.47
2017-03-12T02:55:31.231Z,1020.41
2017-03-12T02:56:12.116Z,1020.39
2017-03-12T02:56:52.996Z,1020.42
2017-03-12T02:57:33.873Z,1020.42
2017-03-12T02:58:14.759Z,1020.39
2017-03-12T02:58:55.641Z,1020.39
2017-03-12T02:59:36.523Z,1020.4
2017-03-12T03:00:17.405Z,1020.39
2017-03-12T03:00:58.289Z,1020.42
2017-03-12T03:01:39.168Z,1020.41
2017-03-12T03:02:20.049Z,1020.38
2017-03-12T03:03:00.927Z,1020.41
2017-03-12T03:03:41.806Z,1020.39
2017-03-12T03:04:22.698Z,1020.39
2017-03-12T03:05:03.580Z,1020.38
2017-03-12T03:05:44.457Z,1020.41
2017-03-12T03:06:25.341Z,1020.42
2017-03-12T03:07:06.224Z,1020.4
2017-03-12T03:07:47.105Z,1020.4
2017-03-12T03:08:27.985Z,1020.4
2017-03-12T03:09:08.900Z,1020.43
2017-03-12T03:09:49.755Z,1020.41
2017-03-12T03:10:30.632Z,1020.4
2017-03-12T03:11:11.507Z,1020.41
2017-03-12T03:11:52.393Z,1020.39
2017-03-12T03:12:33.275Z,1020.44
2017-03-12T03:13:14.156Z,1020.4
2017-03-12T03:13:55.039Z,1020.41
2017-03-12T03:14:35.912Z,1020.39
2017-03-12T03:15:16.790Z,1020.39
2017-03-12T03:15:57.677Z,1020.4
2017-03-12T03:16:38.559Z,1020.44
2017-03-12T03:17:19.440Z,1020.45
2017-03-12T03:18:00.317Z,1020.43
2017-03-12T03:18:41.192Z,1020.43
2017-03-12T03:19:22.074Z,1020.42
2017-03-12T03:20:02.958Z,1020.4
2017-03-12T03:20:43.849Z,1020.44
2017-03-12T03:21:24.730Z,1020.43
2017-03-12T03:22:05.611Z,1020.45
2017-03-12T03:22:46.496Z,1020.45
2017-03-12T03:23:27.372Z,1020.41
2017-03-12T03:24:08.255Z,1020.45
2017-03-12T03:24:49.139Z,1020.41
2017-03-12T03:25:30.013Z,1020.43
2017-03-12T03:26:10.890Z,1020.45
2017-03-12T03:26:51.772Z,1020.45
2017-03-12T03:27:32.655Z,1020.45
2017-03-12T03:28:13.545Z,1020.47
2017-03-12T03:28:54.427Z,1020.44
2017-03-12T03:29:35.305Z,1020.45
2017-03-12T03:30:16.176Z,1020.49
2017-03-12T03:30:57.062Z,1020.48
2017-03-12T03:31:37.940Z,1020.44
2017-03-12T03:32:18.838Z,1020.46
2017-03-12T03:32:59.718Z,1020.46
2017-03-12T03:33:40.599Z,1020.48
2017-03-12T03:34:21.487Z,1020.48
2017-03-12T03:35:02.362Z,1020.46
2017-03-12T03:35:43.292Z,1020.46
2017-03-12T03:36:24.146Z,1020.44
2017-03-12T03:37:05.031Z,1020.46
2017-03-12T03:37:45.902Z,1020.44
2017-03-12T03:38:26.774Z,1020.45
2017-03-12T03:39:07.653Z,1020.42
2017-03-12T03:39:48.540Z,1020.41
2017-03-12T03:40:29.418Z,1020.39
2017-03-12T03:41:10.296Z,1020.42
2017-03-12T03:41:51.177Z,1020.43
2017-03-12T03:42:32.057Z,1020.39
2017-03-12T03:43:12.945Z,1020.39
2017-03-12T03:43:53.815Z,1020.41
2017-03-12T03:44:34.700Z,1020.43
2017-03-12T03:45:15.576Z,1020.4
2017-03-12T03:45:56.456Z,1020.41
2017-03-12T03:46:37.339Z,1020.43
2017-03-12T03:47:18.219Z,1020.41
2017-03-12T03:47:59.096Z,1020.37
2017-03-12T03:48:39.983Z,1020.4
2017-03-12T03:49:20.862Z,1020.4
2017-03-12T03:50:01.752Z,1020.39
2017-03-12T03:50:42.633Z,1020.37
2017-03-12T03:51:23.514Z,1020.39
2017-03-12T03:52:04.392Z,1020.37
2017-03-12T03:52:45.272Z,1020.37
2017-03-12T03:53:26.152Z,1020.37
2017-03-12T03:54:07.044Z,1020.33
2017-03-12T03:54:47.924Z,1020.34
2017-03-12T03:55:28.807Z,1020.33
2017-03-12T03:56:09.690Z,1020.36
2017-03-12T03:56:50.572Z,1020.36
2017-03-12T03:57:31.452Z,1020.34
2017-03-12T03:58:12.332Z,1020.33
2017-03-12T03:58:53.210Z,1020.36
2017-03-12T03:59:34.089Z,1020.39
2017-03-12T04:00:14.985Z,1020.38
2017-03-12T04:00:55.862Z,1020.39
2017-03-12T04:01:36.740Z,1020.4
2017-03-12T04:02:17.622Z,1020.35
2017-03-12T04:02:58.505Z,1020.37
2017-03-12T04:03:39.393Z,1020.38
2017-03-12T04:04:20.267Z,1020.34
2017-03-12T04:05:01.148Z,1020.4
2017-03-12T04:05:42.024Z,1020.36
2017-03-12T04:06:22.909Z,1020.36
2017-03-12T04:07:03.786Z,1020.34
2017-03-12T04:07:44.682Z,1020.39
2017-03-12T04:08:25.586Z,1020.35
2017-03-12T04:09:06.466Z,1020.36
2017-03-12T04:09:47.343Z,1020.37
2017-03-12T04:10:28.218Z,1020.39
2017-03-12T04:11:09.103Z,1020.39
2017-03-12T04:11:49.978Z,1020.38
2017-03-12T04:12:30.860Z,1020.36
2017-03-12T04:13:11.749Z,1020.37
2017-03-12T04:13:52.631Z,1020.36
2017-03-12T04:14:33.520Z,1020.38
2017-03-12T04:15:14.403Z,1020.37
2017-03-12T04:15:55.283Z,1020.35
2017-03-12T04:16:36.170Z,1020.36
2017-03-12T04:17:17.053Z,1020.33
2017-03-12T04:17:57.930Z,1020.37
2017-03-12T04:18:38.817Z,1020.33
2017-03-12T04:19:19.686Z,1020.34
2017-03-12T04:20:00.567Z,1020.35
2017-03-12T04:20:41.454Z,1020.32
2017-03-12T04:21:22.323Z,1020.33
2017-03-12T04:22:03.204Z,1020.38
2017-03-12T04:22:44.085Z,1020.35
2017-03-12T04:23:24.967Z,1020.37
2017-03-12T04:24:05.857Z,1020.35
2017-03-12T04:24:46.737Z,1020.37
2017-03-12T04:25:27.620Z,1020.38
2017-03-12T04:26:08.502Z,1020.37
2017-03-12T04:26:49.381Z,1020.35
2017-03-12T04:27:30.260Z,1020.36
2017-03-12T04:28:11.142Z,1020.35
2017-03-12T04:28:52.024Z,1020.34
2017-03-12T04:29:32.908Z,1020.37
2017-03-12T04:30:13.788Z,1020.34
2017-03-12T04:30:54.668Z,1020.36
2017-03-12T04:31:35.543Z,1020.36
2017-03-12T04:32:16.425Z,1020.36
2017-03-12T04:32:57.311Z,1020.33
2017-03-12T04:33:38.188Z,1020.36
2017-03-12T04:34:19.072Z,1020.36
2017-03-12T04:34:59.950Z,1020.36
2017-03-12T04:35:40.831Z,1020.34
2017-03-12T04:36:21.702Z,1020.38
2017-03-12T04:37:02.581Z,1020.37
2017-03-12T04:37:43.456Z,1020.39
2017-03-12T04:38:24.332Z,1020.34
2017-03-12T04:39:05.210Z,1020.35
2017-03-12T04:39:46.089Z,1020.38
2017-03-12T04:40:26.963Z,1020.38
2017-03-12T04:41:07.838Z,1020.36
2017-03-12T04:41:48.714Z,1020.4
2017-03-12T04:42:29.588Z,1020.39
2017-03-12T04:43:10.460Z,1020.43
2017-03-12T04:43:51.334Z,1020.41
2017-03-12T04:44:32.211Z,1020.42
2017-03-12T04:45:13.113Z,1020.42
2017-03-12T04:45:53.985Z,1020.37
2017-03-12T04:46:34.861Z,1020.39
2017-03-12T04:47:15.737Z,1020.41
2017-03-12T04:47:56.612Z,1020.42
2017-03-12T04:48:37.493Z,1020.41
2017-03-12T04:49:18.369Z,1020.47
2017-03-12T04:49:59.250Z,1020.43
2017-03-12T04:50:40.124Z,1020.45
2017-03-12T04:51:20.998Z,1020.48
2017-03-12T04:52:01.870Z,1020.46
2017-03-12T04:52:42.745Z,1020.46
2017-03-12T04:53:23.625Z,1020.43
2017-03-12T04:54:04.495Z,1020.45
2017-03-12T04:54:45.371Z,1020.44
2017-03-12T04:55:26.241Z,1020.44
2017-03-12T04:56:07.114Z,1020.47
2017-03-12T04:56:47.998Z,1020.44
2017-03-12T04:57:28.873Z,1020.47
2017-03-12T04:58:09.751Z,1020.45
2017-03-12T04:58:50.624Z,1020.43
2017-03-12T04:59:31.496Z,1020.46
2017-03-12T05:00:12.371Z,1020.47
2017-03-12T05:00:53.249Z,1020.45
2017-03-12T05:01:34.127Z,1020.45
2017-03-12T05:02:14.998Z,1020.5
2017-03-12T05:02:55.871Z,1020.5
2017-03-12T05:03:36.750Z,1020.53
2017-03-12T05:04:17.634Z,1020.49
2017-03-12T05:04:58.513Z,1020.54
2017-03-12T05:05:39.394Z,1020.56
2017-03-12T05:06:20.272Z,1020.54
2017-03-12T05:07:01.154Z,1020.55
2017-03-12T05:07:42.032Z,1020.55
2017-03-12T05:08:22.915Z,1020.54
2017-03-12T05:09:03.790Z,1020.57
2017-03-12T05:09:44.667Z,1020.57
2017-03-12T05:10:25.539Z,1020.58
2017-03-12T05:11:06.412Z,1020.56
2017-03-12T05:11:47.288Z,1020.6
2017-03-12T05:12:28.166Z,1020.6
2017-03-12T05:13:09.042Z,1020.56
2017-03-12T05:13:49.917Z,1020.63
2017-03-12T05:14:30.811Z,1020.63
2017-03-12T05:15:11.690Z,1020.63
2017-03-12T05:15:52.567Z,1020.62
2017-03-12T05:16:33.447Z,1020.61
2017-03-12T05:17:14.317Z,1020.6
2017-03-12T05:17:55.193Z,1020.64
2017-03-12T05:18:36.066Z,1020.58
2017-03-12T05:19:16.948Z,1020.63
2017-03-12T05:19:57.823Z,1020.64
2017-03-12T05:20:38.696Z,1020.65
2017-03-12T05:21:19.573Z,1020.62
2017-03-12T05:22:00.451Z,1020.64
2017-03-12T05:22:41.327Z,1020.65
2017-03-12T05:23:22.201Z,1020.63
2017-03-12T05:24:03.074Z,1020.65
2017-03-12T05:24:43.950Z,1020.64
2017-03-12T05:25:24.825Z,1020.64
2017-03-12T05:26:05.699Z,1020.64
2017-03-12T05:26:46.577Z,1020.64
2017-03-12T05:27:27.455Z,1020.64
2017-03-12T05:28:08.331Z,1020.6
2017-03-12T05:28:49.202Z,1020.65
2017-03-12T05:29:30.071Z,1020.62
2017-03-12T05:30:10.949Z,1020.63
2017-03-12T05:30:51.826Z,1020.64
2017-03-12T05:31:32.701Z,1020.63
2017-03-12T05:32:13.575Z,1020.65
2017-03-12T05:32:54.445Z,1020.62
2017-03-12T05:33:35.317Z,1020.62
2017-03-12T05:34:16.196Z,1020.65
2017-03-12T05:34:57.073Z,1020.63
2017-03-12T05:35:37.951Z,1020.64
2017-03-12T05:36:18.852Z,1020.61
2017-03-12T05:36:59.725Z,1020.66
2017-03-12T05:37:40.605Z,1020.64
2017-03-12T05:38:21.488Z,1020.64
2017-03-12T05:39:02.355Z,1020.63
2017-03-12T05:39:43.236Z,1020.61
2017-03-12T05:40:24.115Z,1020.66
2017-03-12T05:41:04.991Z,1020.68
2017-03-12T05:41:45.872Z,1020.62
2017-03-12T05:42:26.746Z,1020.67
2017-03-12T05:43:07.620Z,1020.64
2017-03-12T05:43:48.503Z,1020.59
2017-03-12T05:44:29.377Z,1020.61
2017-03-12T05:45:10.250Z,1020.62
2017-03-12T05:45:51.129Z,1020.63
2017-03-12T05:46:32.001Z,1020.64
2017-03-12T05:47:12.870Z,1020.62
2017-03-12T05:47:53.752Z,1020.64
2017-03-12T05:48:34.629Z,1020.62
2017-03-12T05:49:15.500Z,1020.63
2017-03-12T05:49:56.379Z,1020.6
2017-03-12T05:50:37.252Z,1020.64
2017-03-12T05:51:18.128Z,1020.66
2017-03-12T05:51:59.005Z,1020.62
2017-03-12T05:52:39.887Z,1020.61
2017-03-12T05:53:20.762Z,1020.6
2017-03-12T05:54:01.632Z,1020.57
2017-03-12T05:54:42.506Z,1020.65
2017-03-12T05:55:23.381Z,1020.62
2017-03-12T05:56:04.262Z,1020.64
2017-03-12T05:56:45.138Z,1020.66
2017-03-12T05:57:26.016Z,1020.61
2017-03-12T05:58:06.889Z,1020.6
2017-03-12T05:58:47.765Z,1020.63
2017-03-12T05:59:28.640Z,1020.62
2017-03-12T06:00:09.514Z,1020.61
2017-03-12T06:00:50.382Z,1020.62
2017-03-12T06:01:31.256Z,1020.63
2017-03-12T06:02:12.128Z,1020.64
2017-03-12T06:02:53.002Z,1020.64
2017-03-12T06:03:33.876Z,1020.66
2017-03-12T06:04:14.757Z,1020.65
2017-03-12T06:04:55.631Z,1020.63
2017-03-12T06:05:36.507Z,1020.68
2017-03-12T06:06:17.377Z,1020.66
2017-03-12T06:06:58.250Z,1020.64
2017-03-12T06:07:39.122Z,1020.68
2017-03-12T06:08:19.997Z,1020.68
2017-03-12T06:09:00.867Z,1020.64
2017-03-12T06:09:41.744Z,1020.69
2017-03-12T06:10:22.617Z,1020.71
2017-03-12T06:11:03.496Z,1020.7
2017-03-12T06:11:44.366Z,1020.68
2017-03-12T06:12:25.244Z,1020.69
2017-03-12T06:13:06.117Z,1020.7
2017-03-12T06:13:46.996Z,1020.74
2017-03-12T06:14:27.873Z,1020.74
2017-03-12T06:15:08.745Z,1020.73
2017-03-12T06:15:49.616Z,1020.71
2017-03-12T06:16:30.496Z,1020.7
2017-03-12T06:17:11.363Z,1020.72
2017-03-12T06:17:52.237Z,1020.72
2017-03-12T06:18:33.112Z,1020.77
2017-03-12T06:19:13.981Z,1020.74
2017-03-12T06:19:54.858Z,1020.71
2017-03-12T06:20:35.742Z,1020.75
2017-03-12T06:21:16.619Z,1020.75
2017-03-12T06:21:57.502Z,1020.75
2017-03-12T06:22:38.371Z,1020.78
2017-03-12T06:23:19.273Z,1020.75
2017-03-12T06:24:00.150Z,1020.74
2017-03-12T06:24:41.029Z,1020.76
2017-03-12T06:25:21.905Z,1020.77
2017-03-12T06:26:02.780Z,1020.77
2017-03-12T06:26:43.655Z,1020.79
2017-03-12T06:27:24.530Z,1020.74
2017-03-12T06:28:05.410Z,1020.76
2017-03-12T06:28:46.285Z,1020.74
2017-03-12T06:29:27.163Z,1020.7
2017-03-12T06:30:08.037Z,1020.68
2017-03-12T06:30:48.912Z,1020.73
2017-03-12T06:31:29.790Z,1020.75
2017-03-12T06:32:10.674Z,1020.74
2017-03-12T06:32:51.535Z,1020.73
2017-03-12T06:33:32.409Z,1020.72
2017-03-12T06:34:13.286Z,1020.72
2017-03-12T06:34:54.166Z,1020.73
2017-03-12T06:35:35.038Z,1020.72
2017-03-12T06:36:15.910Z,1020.75
2017-03-12T06:36:56.782Z,1020.78
2017-03-12T06:37:37.656Z,1020.76
2017-03-12T06:38:18.532Z,1020.76
2017-03-12T06:38:59.415Z,1020.76
2017-03-12T06:39:40.294Z,1020.76
2017-03-12T06:40:21.175Z,1020.78
2017-03-12T06:41:02.061Z,1020.73
2017-03-12T06:41:42.923Z,1020.79
2017-03-12T06:42:23.808Z,1020.76
2017-03-12T06:43:04.686Z,1020.78
2017-03-12T06:43:45.589Z,1020.78
2017-03-12T06:44:26.435Z,1020.82
2017-03-12T06:45:07.315Z,1020.8
2017-03-12T06:45:48.194Z,1020.8
2017-03-12T06:46:29.074Z,1020.79
2017-03-12T06:47:09.952Z,1020.8
2017-03-12T06:47:50.823Z,1020.78
2017-03-12T06:48:31.701Z,1020.8
2017-03-12T06:49:12.574Z,1020.82
2017-03-12T06:49:53.454Z,1020.79
2017-03-12T06:50:34.327Z,1020.81
2017-03-12T06:51:15.205Z,1020.83
2017-03-12T06:51:56.076Z,1020.84
2017-03-12T06:52:36.949Z,1020.87
2017-03-12T06:53:17.819Z,1020.88
2017-03-12T06:53:58.705Z,1020.85
2017-03-12T06:54:39.575Z,1020.87
2017-03-12T06:55:20.453Z,1020.89
2017-03-12T06:56:01.325Z,1020.87
2017-03-12T06:56:42.198Z,1020.85
2017-03-12T06:57:23.069Z,1020.88
2017-03-12T06:58:03.944Z,1020.88
2017-03-12T06:58:44.823Z,1020.9
2017-03-12T06:59:25.700Z,1020.92
2017-03-12T07:00:06.573Z,1020.9
2017-03-12T07:00:47.448Z,1020.91
2017-03-12T07:01:28.319Z,1020.93
2017-03-12T07:02:09.198Z,1020.91
2017-03-12T07:02:50.075Z,1020.9
2017-03-12T07:03:30.949Z,1020.92
2017-03-12T07:04:11.824Z,1020.93
2017-03-12T07:04:52.684Z,1020.89
2017-03-12T07:05:33.553Z,1020.89
2017-03-12T07:06:14.433Z,1020.98
2017-03-12T07:06:55.308Z,1020.96
2017-03-12T07:07:36.184Z,1020.93
2017-03-12T07:08:17.062Z,1020.99
2017-03-12T07:08:57.939Z,1020.97
2017-03-12T07:09:38.810Z,1021
2017-03-12T07:10:19.682Z,1021.01
2017-03-12T07:11:00.565Z,1021.02
2017-03-12T07:11:41.446Z,1020.99
2017-03-12T07:12:22.319Z,1021.03
2017-03-12T07:13:03.194Z,1021.01
2017-03-12T07:13:44.066Z,1021.04
2017-03-12T07:14:24.947Z,1021.15
2017-03-12T07:15:05.822Z,1021.1
2017-03-12T07:15:46.700Z,1021.03
2017-03-12T07:16:27.581Z,1021.12
2017-03-12T07:17:08.458Z,1021.08
2017-03-12T07:17:49.336Z,1021.04
2017-03-12T07:18:30.220Z,1021.06
2017-03-12T07:19:11.090Z,1021.04
2017-03-12T07:19:51.970Z,1021.1
2017-03-12T07:20:32.844Z,1021.07
2017-03-12T07:21:13.720Z,1021.01
2017-03-12T07:21:54.601Z,1021.02
2017-03-12T07:22:35.479Z,1021.03
2017-03-12T07:23:16.347Z,1021.03
2017-03-12T07:23:57.228Z,1021
2017-03-12T07:24:38.101Z,1020.99
2017-03-12T07:25:18.980Z,1021
2017-03-12T07:25:59.862Z,1021.09
2017-03-12T07:26:40.734Z,1021.02
2017-03-12T07:27:21.614Z,1021.01
2017-03-12T07:28:02.494Z,1021.08
2017-03-12T07:28:43.393Z,1021.08
2017-03-12T07:29:24.262Z,1021.05
2017-03-12T07:30:05.134Z,1021.04
2017-03-12T07:30:46.015Z,1021.06
2017-03-12T07:31:26.904Z,1021.08
2017-03-12T07:32:07.784Z,1021.06
2017-03-12T07:32:48.664Z,1021.07
2017-03-12T07:33:29.550Z,1021.12
2017-03-12T07:34:10.430Z,1021.07
2017-03-12T07:34:51.311Z,1021.07
2017-03-12T07:35:32.187Z,1021.11
2017-03-12T07:36:13.058Z,1021.14
2017-03-12T07:36:53.929Z,1021.12
2017-03-12T07:37:34.829Z,1021.09
2017-03-12T07:38:15.685Z,1021.14
2017-03-12T07:38:56.562Z,1021.15
2017-03-12T07:39:37.432Z,1021.2
2017-03-12T07:40:18.330Z,1021.17
2017-03-12T07:40:59.209Z,1021.15
2017-03-12T07:41:40.090Z,1021.16
2017-03-12T07:42:20.968Z,1021.2
2017-03-12T07:43:01.840Z,1021.16
2017-03-12T07:43:42.715Z,1021.18
2017-03-12T07:44:23.600Z,1021.21
2017-03-12T07:45:04.482Z,1021.18
2017-03-12T07:45:45.358Z,1021.19
2017-03-12T07:46:26.230Z,1021.17
2017-03-12T07:47:07.105Z,1021.21
2017-03-12T07:47:47.995Z,1021.24
2017-03-12T07:48:28.880Z,1021.23
2017-03-12T07:49:09.759Z,1021.27
2017-03-12T07:49:50.648Z,1021.23
2017-03-12T07:50:31.521Z,1021.28
2017-03-12T07:51:12.396Z,1021.28
2017-03-12T07:51:53.272Z,1021.31
2017-03-12T07:52:34.149Z,1021.32
2017-03-12T07:53:15.019Z,1021.32
2017-03-12T07:53:55.895Z,1021.34
2017-03-12T07:54:36.770Z,1021.3
2017-03-12T07:55:17.647Z,1021.32
2017-03-12T07:55:58.514Z,1021.28
2017-03-12T07:56:39.388Z,1021.31
2017-03-12T07:57:20.262Z,1021.29
2017-03-12T07:58:01.142Z,1021.27
2017-03-12T07:58:42.019Z,1021.23
2017-03-12T07:59:22.895Z,1021.24
2017-03-12T08:00:03.780Z,1021.22
2017-03-12T08:00:44.656Z,1021.22
2017-03-12T08:01:25.533Z,1021.22
2017-03-12T08:02:06.416Z,1021.19
2017-03-12T08:02:47.299Z,1021.23
2017-03-12T08:03:28.172Z,1021.17
2017-03-12T08:04:09.050Z,1021.15
2017-03-12T08:04:49.927Z,1021.22
2017-03-12T08:05:30.803Z,1021.23
2017-03-12T08:06:11.685Z,1021.21
2017-03-12T08:06:52.560Z,1021.2
2017-03-12T08:07:33.434Z,1021.16
2017-03-12T08:08:14.304Z,1021.19
2017-03-12T08:08:55.176Z,1021.19
2017-03-12T08:09:36.049Z,1021.25
2017-03-12T08:10:16.927Z,1021.19
2017-03-12T08:10:57.809Z,1021.22
2017-03-12T08:11:38.681Z,1021.2
2017-03-12T08:12:19.557Z,1021.19
2017-03-12T08:13:00.433Z,1021.2
2017-03-12T08:13:41.313Z,1021.21
2017-03-12T08:14:22.193Z,1021.19
2017-03-12T08:16:21.712Z,1021.25
2017-03-12T08:17:02.575Z,1021.26
2017-03-12T08:17:43.458Z,1021.26
2017-03-12T08:18:24.336Z,1021.31